Hawley, Texas
Current Conditions -  °F | °C
As of 6:58 PM on Monday 26 Jan 2015 (Local Time) from KDYS Reporting Station
Clear Clear  
Wind Chill: 56°   Ceiling: Unl
Heat Index: 56°   Visibility: 10mi
Dew Point: 38°   Wind: 8mph
Humidity: 50%   Direction: 230°SW
Pressure: 30.16"   Gusts: NA
Location:  32.61°N, 99.81°W
Report Text: KDYS 270058Z AUTO 23007KT 10SM CLR 14/03 A3016 RMK AO2 SLP213 T01350033 $
Loading
Personal Weather Stations






























Interactive Weather Map New forecast layout! Learn more

10-Day Weather Forecast

Advertisements
Track Severe Weather on mobile